createdAt,value
2023-01-09T00:00:29.652Z,-2.90
2023-01-09T00:03:35.950Z,-3.40
2023-01-09T00:06:43.596Z,-3.01
2023-01-09T00:09:49.720Z,-3.49
2023-01-09T00:12:57.512Z,-3.89
2023-01-09T00:16:05.015Z,-3.37
2023-01-09T00:19:11.256Z,-3.63
2023-01-09T00:22:17.354Z,-3.40
2023-01-09T00:25:24.110Z,-3.87
2023-01-09T00:28:31.911Z,-3.41
2023-01-09T00:31:38.196Z,-3.61
2023-01-09T00:34:44.447Z,-3.41
2023-01-09T00:37:50.834Z,-2.97
2023-01-09T00:40:57.648Z,-3.41
2023-01-09T00:44:09.967Z,-2.96
2023-01-09T00:47:21.638Z,-2.87
2023-01-09T00:50:32.433Z,-2.62
2023-01-09T00:53:42.856Z,-2.60
2023-01-09T00:56:50.289Z,-2.55
2023-01-09T00:59:59.398Z,-3.68
2023-01-09T01:03:06.107Z,-3.60
2023-01-09T01:06:30.308Z,-3.59
2023-01-09T01:09:36.965Z,-3.79
2023-01-09T01:12:43.856Z,-2.81
2023-01-09T01:15:51.617Z,-3.02
2023-01-09T01:18:57.872Z,-2.35
2023-01-09T01:22:04.034Z,-2.90
2023-01-09T01:25:11.667Z,-3.12
2023-01-09T01:28:18.155Z,-2.66
2023-01-09T01:31:25.763Z,-2.78
2023-01-09T01:34:32.223Z,-2.10
2023-01-09T01:37:39.595Z,-2.33
2023-01-09T01:40:45.887Z,-2.86
2023-01-09T01:43:54.785Z,-2.73
2023-01-09T01:47:03.142Z,-2.26
2023-01-09T01:50:15.803Z,-2.07
2023-01-09T01:53:26.716Z,-2.03
2023-01-09T01:56:38.798Z,-1.96
2023-01-09T01:59:50.477Z,-1.91
2023-01-09T02:02:58.875Z,-2.12
2023-01-09T02:06:06.102Z,-2.17
2023-01-09T02:09:15.381Z,-2.20
2023-01-09T02:12:24.908Z,-2.55
2023-01-09T02:15:41.112Z,-2.12
2023-01-09T02:18:52.463Z,-2.62
2023-01-09T02:22:09.858Z,-2.18
2023-01-09T02:25:46.531Z,-2.48
2023-01-09T02:29:47.020Z,-2.58
2023-01-09T02:33:07.843Z,-2.46
2023-01-09T02:36:24.172Z,-1.98
2023-01-09T02:39:38.673Z,-2.35
2023-01-09T02:42:47.019Z,-2.19
2023-01-09T02:45:53.441Z,-1.83
2023-01-09T02:49:00.998Z,-2.04
2023-01-09T02:52:34.955Z,-2.03
2023-01-09T02:55:53.138Z,-1.80
2023-01-09T02:59:15.272Z,-1.62
2023-01-09T03:02:36.696Z,-1.48
2023-01-09T03:05:51.147Z,-1.57
2023-01-09T03:09:02.630Z,-1.79
2023-01-09T03:12:18.302Z,-2.20
2023-01-09T03:15:30.277Z,-2.06
2023-01-09T03:18:38.511Z,-1.90
2023-01-09T03:21:47.844Z,-2.00
2023-01-09T03:24:54.059Z,-1.44
2023-01-09T03:28:02.386Z,-1.70
2023-01-09T03:31:08.540Z,-1.54
2023-01-09T03:34:14.703Z,-1.31
2023-01-09T03:37:22.527Z,-1.09
2023-01-09T03:40:29.030Z,-1.70
2023-01-09T03:43:36.058Z,-1.49
2023-01-09T03:46:42.251Z,-1.29
2023-01-09T03:49:48.288Z,-1.51
2023-01-09T03:52:56.429Z,-1.24
2023-01-09T03:56:03.097Z,-0.98
2023-01-09T03:59:09.536Z,-1.13
2023-01-09T04:02:15.789Z,-1.17
2023-01-09T04:05:21.981Z,-0.96
2023-01-09T04:08:30.740Z,-1.36
2023-01-09T04:11:36.992Z,-1.21
2023-01-09T04:14:43.154Z,-1.23
2023-01-09T04:17:49.475Z,-0.98
2023-01-09T04:20:55.650Z,-1.31
2023-01-09T04:24:03.221Z,-1.07
2023-01-09T04:27:09.387Z,-1.15
2023-01-09T04:30:16.226Z,-1.23
2023-01-09T04:33:22.611Z,-1.34
2023-01-09T04:36:28.865Z,-1.31
2023-01-09T04:39:37.558Z,-1.14
2023-01-09T04:42:44.140Z,-1.52
2023-01-09T04:45:50.773Z,-1.02
2023-01-09T04:48:57.219Z,-1.43
2023-01-09T04:52:03.454Z,-0.96
2023-01-09T04:55:11.691Z,-0.90
2023-01-09T04:58:17.949Z,-0.88
2023-01-09T05:01:24.787Z,-0.86
2023-01-09T05:04:31.609Z,-1.34
2023-01-09T05:07:38.319Z,-1.10
2023-01-09T05:10:46.203Z,-1.45
2023-01-09T05:13:53.017Z,-1.13
2023-01-09T05:16:59.416Z,-1.01
2023-01-09T05:20:06.287Z,-1.10
2023-01-09T05:23:12.279Z,-0.76
2023-01-09T05:26:23.392Z,-0.63
2023-01-09T05:29:29.751Z,-0.59
2023-01-09T05:32:36.109Z,-0.80
2023-01-09T05:35:42.156Z,-0.54
2023-01-09T05:38:48.496Z,-0.61
2023-01-09T05:41:56.281Z,-0.43
2023-01-09T05:45:02.623Z,-0.47
2023-01-09T05:48:08.922Z,-0.78
2023-01-09T05:51:15.512Z,-0.38
2023-01-09T05:54:21.888Z,-0.28
2023-01-09T05:57:30.022Z,-0.80
2023-01-09T06:00:36.280Z,-0.97
2023-01-09T06:03:43.064Z,-0.44
2023-01-09T06:10:15.595Z,-0.53
2023-01-09T06:13:23.467Z,-0.55
2023-01-09T06:16:29.918Z,-0.30
2023-01-09T06:19:36.225Z,-0.34
2023-01-09T06:22:44.883Z,-0.67
2023-01-09T06:25:51.481Z,-0.38
2023-01-09T06:29:01.016Z,-0.78
2023-01-09T06:32:07.883Z,-0.81
2023-01-09T06:35:14.384Z,-0.79
2023-01-09T06:38:21.283Z,-0.64
2023-01-09T06:41:27.536Z,-0.94
2023-01-09T06:44:37.362Z,-0.93
2023-01-09T06:47:43.689Z,-0.25
2023-01-09T06:50:50.318Z,-0.10
2023-01-09T06:53:56.665Z,-0.09
2023-01-09T06:57:03.616Z,0.18
2023-01-09T07:00:13.160Z,0.26
2023-01-09T07:03:22.373Z,0.40
2023-01-09T07:06:30.099Z,0.30
2023-01-09T07:09:36.450Z,0.09
2023-01-09T07:12:42.704Z,0.12
2023-01-09T07:15:50.893Z,0.06
2023-01-09T07:18:57.423Z,0.38
2023-01-09T07:22:03.956Z,0.43
2023-01-09T07:25:10.605Z,0.06
2023-01-09T07:28:17.166Z,0.52
2023-01-09T07:31:24.745Z,0.33
2023-01-09T07:34:31.374Z,0.07
2023-01-09T07:37:37.780Z,0.38
2023-01-09T07:40:43.975Z,0.61
2023-01-09T07:43:50.340Z,0.64
2023-01-09T07:46:57.937Z,0.30
2023-01-09T07:50:04.573Z,0.40
2023-01-09T07:53:11.038Z,0.71
2023-01-09T07:56:17.401Z,0.54
2023-01-09T07:59:23.452Z,0.75
2023-01-09T08:02:31.227Z,0.73
2023-01-09T08:05:37.391Z,0.88
2023-01-09T08:08:44.386Z,0.95
2023-01-09T08:11:50.953Z,0.71
2023-01-09T08:14:57.716Z,0.66
2023-01-09T08:18:05.679Z,1.03
2023-01-09T08:21:12.627Z,1.01
2023-01-09T08:24:18.920Z,1.13
2023-01-09T08:27:25.193Z,1.16
2023-01-09T08:30:31.343Z,1.36
2023-01-09T08:33:40.493Z,1.41
2023-01-09T08:36:46.902Z,1.35
2023-01-09T08:39:53.665Z,1.46
2023-01-09T08:43:18.011Z,1.44
2023-01-09T08:46:41.360Z,1.54
2023-01-09T08:49:49.127Z,1.50
2023-01-09T08:52:55.649Z,1.53
2023-01-09T08:56:01.788Z,1.64
2023-01-09T08:59:08.177Z,1.72
2023-01-09T09:02:14.145Z,1.82
2023-01-09T09:05:23.080Z,1.61
2023-01-09T09:08:29.596Z,1.86
2023-01-09T09:11:35.984Z,1.54
2023-01-09T09:14:59.755Z,1.43
2023-01-09T09:18:09.383Z,1.89
2023-01-09T09:21:17.152Z,1.88
2023-01-09T09:24:23.848Z,1.57
2023-01-09T09:27:30.566Z,1.71
2023-01-09T09:30:39.291Z,2.01
2023-01-09T09:33:45.727Z,2.16
2023-01-09T09:36:53.468Z,1.95
2023-01-09T09:40:09.786Z,2.30
2023-01-09T09:43:59.857Z,2.65
2023-01-09T09:47:13.923Z,2.82
2023-01-09T09:50:40.417Z,3.09
2023-01-09T09:53:52.893Z,2.85
2023-01-09T09:57:01.055Z,3.42
2023-01-09T10:00:09.214Z,3.53
2023-01-09T10:03:33.983Z,3.95
2023-01-09T10:06:45.156Z,3.81
2023-01-09T10:09:55.919Z,3.94
2023-01-09T10:13:23.652Z,4.70
2023-01-09T10:16:41.826Z,5.23
2023-01-09T10:20:25.970Z,5.42
2023-01-09T10:24:06.481Z,5.40
2023-01-09T10:27:23.058Z,4.57
2023-01-09T10:30:36.319Z,4.73
2023-01-09T10:33:56.028Z,5.56
2023-01-09T10:37:12.359Z,5.90
2023-01-09T10:40:23.501Z,6.26
2023-01-09T10:43:37.410Z,6.40
2023-01-09T10:46:50.402Z,6.63
2023-01-09T10:49:58.067Z,6.84
2023-01-09T10:53:16.509Z,6.91
2023-01-09T10:56:25.654Z,6.60
2023-01-09T10:59:33.570Z,6.80
2023-01-09T11:02:40.087Z,7.02
2023-01-09T11:05:52.318Z,7.07
2023-01-09T11:09:01.560Z,7.59
2023-01-09T11:12:26.337Z,7.45
2023-01-09T11:15:34.225Z,7.46
2023-01-09T11:18:49.283Z,7.62
2023-01-09T11:22:08.111Z,8.03
2023-01-09T11:25:15.571Z,7.93
2023-01-09T11:28:22.228Z,8.24
2023-01-09T11:31:30.543Z,8.23
2023-01-09T11:34:39.191Z,7.19
2023-01-09T11:37:46.469Z,7.61
2023-01-09T11:40:55.806Z,7.19
2023-01-09T11:44:05.733Z,7.42
2023-01-09T11:47:35.794Z,7.62
2023-01-09T11:50:42.184Z,7.90
2023-01-09T11:54:22.213Z,8.38
2023-01-09T11:57:28.826Z,8.25
2023-01-09T12:00:45.609Z,7.74
2023-01-09T12:04:10.961Z,7.66
2023-01-09T12:07:35.621Z,8.18
2023-01-09T12:10:59.317Z,8.23
2023-01-09T12:14:16.607Z,8.28
2023-01-09T12:18:03.436Z,8.29
2023-01-09T12:21:33.997Z,7.67
2023-01-09T12:25:02.401Z,6.94
2023-01-09T12:28:48.142Z,7.50
2023-01-09T12:32:11.584Z,7.19
2023-01-09T12:35:30.280Z,6.84
2023-01-09T12:38:49.116Z,6.87
2023-01-09T12:42:18.573Z,6.86
2023-01-09T12:45:42.963Z,6.21
2023-01-09T12:49:12.888Z,6.58
2023-01-09T12:52:23.573Z,6.44
2023-01-09T12:55:36.211Z,6.44
2023-01-09T12:58:48.483Z,6.72
2023-01-09T13:01:55.561Z,6.70
2023-01-09T13:05:04.120Z,6.73
2023-01-09T13:08:16.919Z,6.90
2023-01-09T13:11:30.166Z,7.93
2023-01-09T13:14:50.414Z,8.56
2023-01-09T13:18:01.817Z,6.97
2023-01-09T13:21:09.784Z,7.23
2023-01-09T13:24:21.325Z,6.93
2023-01-09T13:27:34.673Z,7.37
2023-01-09T13:31:01.098Z,6.91
2023-01-09T13:34:21.567Z,7.12
2023-01-09T13:37:30.887Z,6.87
2023-01-09T13:40:38.228Z,6.58
2023-01-09T13:43:57.227Z,6.86
2023-01-09T13:47:04.673Z,7.61
2023-01-09T13:50:27.178Z,7.15
2023-01-09T13:53:49.576Z,6.95
2023-01-09T13:57:29.700Z,6.29
2023-01-09T14:00:55.887Z,6.32
2023-01-09T14:04:39.510Z,6.67
2023-01-09T14:07:49.210Z,6.46
2023-01-09T14:10:58.188Z,6.37
2023-01-09T14:14:09.239Z,6.15
2023-01-09T14:17:24.368Z,6.09
2023-01-09T14:20:38.002Z,5.75
2023-01-09T14:23:54.952Z,5.76
2023-01-09T14:27:03.631Z,5.85
2023-01-09T14:30:31.974Z,5.61
2023-01-09T14:33:40.077Z,5.40
2023-01-09T14:36:46.653Z,5.32
2023-01-09T14:39:53.375Z,5.47
2023-01-09T14:43:10.384Z,5.25
2023-01-09T14:46:19.812Z,5.26
2023-01-09T14:49:35.752Z,4.99
2023-01-09T14:52:49.086Z,4.82
2023-01-09T14:55:58.156Z,4.94
2023-01-09T14:59:11.624Z,4.78
2023-01-09T15:02:22.806Z,4.87
2023-01-09T15:05:32.899Z,4.59
2023-01-09T15:08:39.486Z,4.33
2023-01-09T15:11:46.465Z,4.09
2023-01-09T15:14:56.048Z,4.40
2023-01-09T15:18:06.537Z,4.09
2023-01-09T15:21:21.437Z,4.25
2023-01-09T15:24:30.558Z,3.53
2023-01-09T15:27:48.419Z,3.71
2023-01-09T15:30:57.472Z,3.51
2023-01-09T15:34:05.750Z,4.08
2023-01-09T15:37:26.823Z,3.79
2023-01-09T15:40:35.720Z,3.98
2023-01-09T15:43:45.370Z,3.98
2023-01-09T15:46:52.156Z,3.71
2023-01-09T15:49:59.932Z,3.83
2023-01-09T15:53:11.529Z,3.62
2023-01-09T15:56:24.276Z,3.47
2023-01-09T15:59:30.671Z,2.91
2023-01-09T16:02:54.675Z,2.69
2023-01-09T16:06:08.377Z,2.79
2023-01-09T16:09:21.204Z,3.13
2023-01-09T16:12:30.032Z,2.59
2023-01-09T16:15:36.745Z,2.85
2023-01-09T16:18:51.887Z,2.70
2023-01-09T16:21:58.859Z,2.75
2023-01-09T16:25:28.969Z,2.99
2023-01-09T16:28:35.695Z,2.70
2023-01-09T16:31:42.184Z,2.85
2023-01-09T16:34:52.259Z,2.57
2023-01-09T16:37:59.399Z,2.54
2023-01-09T16:41:40.713Z,2.76
2023-01-09T16:44:47.107Z,3.20
2023-01-09T16:47:53.754Z,3.25
2023-01-09T16:51:00.143Z,3.12
2023-01-09T16:54:06.807Z,3.39
2023-01-09T16:57:18.377Z,3.47
2023-01-09T17:00:24.938Z,3.48
2023-01-09T17:03:31.239Z,3.54
2023-01-09T17:06:39.117Z,3.67
2023-01-09T17:09:45.933Z,3.48
2023-01-09T17:12:53.559Z,3.36
2023-01-09T17:16:00.665Z,3.67
2023-01-09T17:19:06.883Z,3.71
2023-01-09T17:22:13.475Z,3.45
2023-01-09T17:25:36.879Z,3.57
2023-01-09T17:28:47.847Z,3.53
2023-01-09T17:31:54.362Z,3.50
2023-01-09T17:35:00.596Z,3.38
2023-01-09T17:38:07.085Z,3.46
2023-01-09T17:41:14.430Z,3.79
2023-01-09T17:44:22.165Z,3.61
2023-01-09T17:47:28.810Z,4.00
2023-01-09T17:50:36.469Z,3.69
2023-01-09T17:53:42.815Z,3.94
2023-01-09T17:56:51.348Z,3.95
2023-01-09T17:59:59.293Z,3.81
2023-01-09T18:03:07.660Z,3.78
2023-01-09T18:06:14.890Z,3.84
2023-01-09T18:09:20.966Z,3.84
2023-01-09T18:12:27.316Z,3.56
2023-01-09T18:15:34.727Z,3.68
2023-01-09T18:18:41.835Z,3.77
2023-01-09T18:21:48.153Z,3.83
2023-01-09T18:24:54.179Z,3.92
2023-01-09T18:28:01.235Z,4.10
2023-01-09T18:31:09.206Z,3.77
2023-01-09T18:34:15.492Z,3.90
2023-01-09T18:37:21.747Z,3.95
2023-01-09T18:40:28.011Z,4.11
2023-01-09T18:43:34.394Z,3.84
2023-01-09T18:46:43.654Z,4.21
2023-01-09T18:49:50.165Z,3.91
2023-01-09T18:52:56.350Z,4.06
2023-01-09T18:56:05.330Z,4.04
2023-01-09T18:59:12.409Z,4.09
2023-01-09T19:02:23.049Z,4.14
2023-01-09T19:05:29.648Z,3.56
2023-01-09T19:08:37.196Z,3.73
2023-01-09T19:11:44.515Z,3.88
2023-01-09T19:14:50.917Z,3.86
2023-01-09T19:17:59.026Z,3.99
2023-01-09T19:21:11.605Z,4.12
2023-01-09T19:24:20.301Z,4.26
2023-01-09T19:27:29.227Z,4.23
2023-01-09T19:30:36.858Z,4.13
2023-01-09T19:33:44.886Z,4.16
2023-01-09T19:36:51.704Z,4.18
2023-01-09T19:39:58.280Z,4.19
2023-01-09T19:43:04.626Z,4.20
2023-01-09T19:46:12.867Z,4.12
2023-01-09T19:49:20.840Z,3.94
2023-01-09T19:52:27.339Z,4.03
2023-01-09T19:55:33.676Z,4.05
2023-01-09T19:58:40.080Z,4.04
2023-01-09T20:01:48.072Z,4.15
2023-01-09T20:04:55.732Z,4.10
2023-01-09T20:08:06.297Z,4.07
2023-01-09T20:11:12.858Z,4.23
2023-01-09T20:14:20.925Z,3.89
2023-01-09T20:17:27.459Z,3.95
2023-01-09T20:20:35.327Z,3.86
2023-01-09T20:23:41.598Z,3.85
2023-01-09T20:26:47.944Z,3.67
2023-01-09T20:29:54.172Z,3.49
2023-01-09T20:33:00.646Z,3.39
2023-01-09T20:36:09.605Z,3.49
2023-01-09T20:39:16.130Z,3.60
2023-01-09T20:42:22.302Z,3.64
2023-01-09T20:45:28.885Z,3.54
2023-01-09T20:48:35.305Z,3.79
2023-01-09T20:51:46.147Z,3.71
2023-01-09T20:54:52.205Z,3.65
2023-01-09T20:57:58.747Z,3.63
2023-01-09T21:01:08.867Z,3.71
2023-01-09T21:04:15.272Z,3.74
2023-01-09T21:07:25.041Z,3.76
2023-01-09T21:10:31.268Z,3.65
2023-01-09T21:13:37.440Z,3.59
2023-01-09T21:16:53.718Z,3.71
2023-01-09T21:20:01.069Z,3.56
2023-01-09T21:23:10.474Z,3.55
2023-01-09T21:26:18.884Z,3.62
2023-01-09T21:29:25.564Z,3.51
2023-01-09T21:32:32.901Z,3.41
2023-01-09T21:35:39.152Z,3.62
2023-01-09T21:38:47.754Z,3.82
2023-01-09T21:42:11.309Z,3.69
2023-01-09T21:45:36.789Z,3.82
2023-01-09T21:48:43.267Z,3.51
2023-01-09T21:51:49.704Z,3.53
2023-01-09T21:54:58.885Z,3.73
2023-01-09T21:58:05.429Z,3.66
2023-01-09T22:01:11.962Z,3.65
2023-01-09T22:04:19.687Z,3.89
2023-01-09T22:07:26.438Z,3.81
2023-01-09T22:10:34.322Z,3.65
2023-01-09T22:13:40.660Z,3.71
2023-01-09T22:16:47.604Z,3.85
2023-01-09T22:19:54.025Z,3.82
2023-01-09T22:23:00.409Z,3.79
2023-01-09T22:26:13.237Z,3.70
2023-01-09T22:29:19.806Z,3.81
2023-01-09T22:32:26.127Z,3.79
2023-01-09T22:35:32.595Z,3.75
2023-01-09T22:38:39.669Z,3.94
2023-01-09T22:41:52.152Z,3.71
2023-01-09T22:44:58.716Z,3.77
2023-01-09T22:48:05.138Z,4.13
2023-01-09T22:51:14.767Z,3.87
2023-01-09T22:54:21.766Z,3.82
2023-01-09T22:57:29.748Z,3.72
2023-01-09T23:00:36.192Z,3.61
2023-01-09T23:03:42.625Z,3.79
2023-01-09T23:06:48.944Z,3.70
2023-01-09T23:09:56.457Z,3.69
2023-01-09T23:13:04.392Z,3.68
2023-01-09T23:16:11.048Z,3.85
2023-01-09T23:19:17.748Z,3.56
2023-01-09T23:22:25.998Z,3.68
2023-01-09T23:25:32.524Z,3.87
2023-01-09T23:28:40.456Z,3.93
2023-01-09T23:31:46.887Z,3.84
2023-01-09T23:34:53.151Z,3.95
2023-01-09T23:37:59.682Z,3.87
2023-01-09T23:41:07.308Z,3.82
2023-01-09T23:44:14.352Z,3.87
2023-01-09T23:47:21.080Z,4.10
2023-01-09T23:50:27.397Z,3.92
2023-01-09T23:53:34.025Z,4.17
2023-01-09T23:56:40.499Z,4.11
2023-01-09T23:59:48.179Z,4.25
